Risingsun, Ohio
Current Conditions -  °F | °C
As of 7:53 PM on Saturday 25 Oct 2014 (Local Time) from KTDZ Reporting Station
Clear Clear  
Wind Chill: 61°   Ceiling: Unl
Heat Index: 61°   Visibility: 10mi
Dew Point: 29°   Wind: 15mph
Humidity: 30%   Direction: 280°W
Pressure: 29.83"   Gusts: NA
Location:  41.27°N, 83.42°W
Report Text: KTDZ 252353Z AUTO 28013KT 10SM CLR 16/M02 A2983 RMK AO2 SLP099 T01611017 10211 20161 53013 TSNO
Loading
Personal Weather Stations






























Interactive Weather Map
Tropical Storm Tracking
New forecast layout! Learn more

10-Day Weather Forecast

Advertisements
Track Severe Weather on mobile